createdAt,value
2019-06-20T00:01:44.359Z,48.50
2019-06-20T00:04:13.556Z,48.78
2019-06-20T00:06:42.809Z,48.59
2019-06-20T00:09:12.014Z,48.50
2019-06-20T00:11:41.295Z,48.75
2019-06-20T00:14:10.849Z,47.87
2019-06-20T00:16:40.117Z,48.19
2019-06-20T00:19:09.319Z,48.45
2019-06-20T00:21:38.516Z,47.73
2019-06-20T00:24:07.787Z,47.79
2019-06-20T00:26:37.057Z,47.58
2019-06-20T00:29:06.670Z,46.89
2019-06-20T00:31:35.867Z,46.87
2019-06-20T00:34:05.116Z,46.34
2019-06-20T00:36:34.322Z,46.19
2019-06-20T00:41:58.584Z,46.18
2019-06-20T00:44:27.858Z,45.34
2019-06-20T00:46:57.545Z,45.73
2019-06-20T00:49:27.152Z,45.83
2019-06-20T00:51:56.404Z,45.43
2019-06-20T00:54:25.969Z,45.69
2019-06-20T00:56:55.171Z,45.77
2019-06-20T00:59:24.756Z,46.11
2019-06-20T01:01:53.956Z,45.24
2019-06-20T01:04:23.207Z,45.35
2019-06-20T01:06:52.410Z,45.32
2019-06-20T01:09:21.599Z,45.16
2019-06-20T01:11:51.168Z,44.96
2019-06-20T01:14:20.662Z,44.96
2019-06-20T01:16:49.917Z,44.64
2019-06-20T01:19:19.122Z,44.59
2019-06-20T01:21:48.809Z,44.69
2019-06-20T01:24:18.011Z,44.53
2019-06-20T01:26:47.704Z,45.01
2019-06-20T01:29:36.021Z,44.47
2019-06-20T01:32:05.270Z,44.82
2019-06-20T01:34:34.464Z,45.08
2019-06-20T01:37:03.719Z,44.75
2019-06-20T01:39:32.922Z,44.68
2019-06-20T01:44:37.083Z,44.70
2019-06-20T01:47:06.274Z,45.58
2019-06-20T01:49:35.545Z,45.07
2019-06-20T01:52:04.733Z,44.77
2019-06-20T01:54:34.381Z,45.17
2019-06-20T01:57:03.580Z,45.14
2019-06-20T01:59:32.819Z,44.68
2019-06-20T02:02:02.023Z,45.19
2019-06-20T02:04:31.268Z,45.39
2019-06-20T02:07:00.483Z,45.29
2019-06-20T02:09:30.067Z,45.76
2019-06-20T02:11:59.347Z,45.71
2019-06-20T02:14:29.155Z,46.10
2019-06-20T02:16:58.776Z,46.85
2019-06-20T02:19:28.112Z,48.38
2019-06-20T02:21:57.421Z,49.48
2019-06-20T02:24:27.073Z,51.24
2019-06-20T02:26:56.498Z,51.24
2019-06-20T02:29:25.765Z,51.32
2019-06-20T02:31:54.952Z,52.05
2019-06-20T02:34:24.205Z,51.38
2019-06-20T02:36:53.419Z,51.90
2019-06-20T02:39:22.634Z,52.44
2019-06-20T02:41:51.842Z,52.50
2019-06-20T02:44:29.914Z,52.53
2019-06-20T02:46:52.033Z,52.21
2019-06-20T02:49:21.237Z,51.95
2019-06-20T02:52:30.141Z,52.86
2019-06-20T02:54:59.389Z,52.61
2019-06-20T02:57:28.590Z,52.53
2019-06-20T02:59:58.190Z,51.99
2019-06-20T03:02:27.380Z,51.98
2019-06-20T03:04:56.578Z,51.68
2019-06-20T03:07:25.829Z,52.55
2019-06-20T03:09:55.385Z,52.46
2019-06-20T03:12:25.045Z,52.31
2019-06-20T03:14:54.242Z,52.51
2019-06-20T03:17:23.489Z,52.46
2019-06-20T03:19:52.692Z,52.45
2019-06-20T03:22:21.935Z,52.64
2019-06-20T03:24:51.131Z,53.10
2019-06-20T03:27:20.425Z,53.22
2019-06-20T03:29:49.629Z,54.69
2019-06-20T03:32:18.881Z,53.38
2019-06-20T03:34:48.064Z,53.61
2019-06-20T03:37:17.331Z,53.56
2019-06-20T03:39:46.827Z,53.84
2019-06-20T03:42:16.071Z,53.58
2019-06-20T03:45:00.998Z,54.02
2019-06-20T03:47:16.265Z,54.10
2019-06-20T03:49:45.796Z,54.06
2019-06-20T03:58:44.892Z,54.18
2019-06-20T04:01:14.139Z,54.16
2019-06-20T04:03:43.345Z,54.19
2019-06-20T04:06:12.589Z,53.95
2019-06-20T04:08:41.791Z,54.10
2019-06-20T04:11:11.405Z,54.17
2019-06-20T04:13:40.597Z,54.15
2019-06-20T04:16:10.111Z,53.85
2019-06-20T04:18:39.770Z,54.44
2019-06-20T04:21:09.329Z,54.25
2019-06-20T04:23:38.579Z,54.57
2019-06-20T04:26:07.922Z,54.83
2019-06-20T04:28:37.542Z,54.85
2019-06-20T04:31:07.037Z,54.98
2019-06-20T04:33:36.297Z,54.82
2019-06-20T04:36:06.086Z,55.28
2019-06-20T04:38:35.336Z,55.55
2019-06-20T04:41:04.530Z,55.11
2019-06-20T04:43:33.775Z,55.11
2019-06-20T04:46:22.288Z,55.18
2019-06-20T04:48:51.537Z,55.04
2019-06-20T04:51:20.737Z,55.09
2019-06-20T04:53:50.709Z,55.03
2019-06-20T04:56:20.339Z,55.16
2019-06-20T04:58:49.611Z,54.58
2019-06-20T05:01:18.803Z,54.52
2019-06-20T05:03:48.041Z,54.88
2019-06-20T05:06:17.241Z,54.16
2019-06-20T05:08:46.827Z,54.17
2019-06-20T05:11:16.022Z,53.94
2019-06-20T05:13:59.417Z,53.94
2019-06-20T05:16:16.217Z,53.03
2019-06-20T05:18:45.486Z,52.69
2019-06-20T05:21:14.670Z,53.02
2019-06-20T05:23:43.914Z,53.39
2019-06-20T05:26:13.155Z,53.31
2019-06-20T05:28:42.750Z,52.49
2019-06-20T05:31:11.944Z,52.17
2019-06-20T05:33:41.205Z,52.65
2019-06-20T05:36:10.405Z,51.31
2019-06-20T05:38:39.658Z,51.23
2019-06-20T05:41:09.145Z,50.37
2019-06-20T05:43:38.756Z,49.97
2019-06-20T05:46:10.820Z,50.42
2019-06-20T05:48:39.036Z,50.25
2019-06-20T05:51:08.240Z,50.13
2019-06-20T05:53:37.808Z,50.10
2019-06-20T05:56:07.015Z,49.98
2019-06-20T05:58:36.573Z,50.83
2019-06-20T06:01:05.875Z,51.33
2019-06-20T06:03:35.417Z,51.46
2019-06-20T06:06:04.678Z,51.52
2019-06-20T06:08:34.125Z,51.37
2019-06-20T06:11:05.641Z,51.30
2019-06-20T06:13:34.837Z,51.23
2019-06-20T06:16:04.107Z,51.56
2019-06-20T06:18:33.311Z,51.64
2019-06-20T06:21:03.021Z,51.86
2019-06-20T06:23:32.569Z,51.35
2019-06-20T06:26:02.266Z,51.20
2019-06-20T06:28:31.484Z,51.30
2019-06-20T06:31:00.731Z,51.37
2019-06-20T06:33:29.966Z,51.57
2019-06-20T06:35:59.235Z,51.19
2019-06-20T06:38:28.436Z,50.92
2019-06-20T06:40:57.719Z,50.48
2019-06-20T06:43:27.374Z,50.56
2019-06-20T06:45:56.887Z,50.29
2019-06-20T06:48:26.133Z,50.27
2019-06-20T06:50:55.332Z,50.24
2019-06-20T06:53:24.576Z,50.25
2019-06-20T06:55:53.769Z,50.12
2019-06-20T06:58:23.017Z,50.20
2019-06-20T07:00:52.208Z,50.43
2019-06-20T07:03:21.491Z,50.09
2019-06-20T07:05:50.665Z,50.45
2019-06-20T07:08:19.926Z,50.12
2019-06-20T07:10:49.121Z,49.71
2019-06-20T07:13:18.371Z,49.48
2019-06-20T07:15:47.592Z,49.25
2019-06-20T07:18:16.845Z,49.07
2019-06-20T07:20:46.042Z,48.78
2019-06-20T07:23:15.517Z,48.47
2019-06-20T07:25:44.773Z,48.27
2019-06-20T07:28:14.022Z,47.68
2019-06-20T07:30:43.292Z,47.82
2019-06-20T07:33:12.656Z,47.52
2019-06-20T07:35:42.105Z,47.38
2019-06-20T07:38:11.278Z,46.71
2019-06-20T07:40:40.544Z,46.67
2019-06-20T07:43:09.756Z,46.49
2019-06-20T07:45:39.022Z,45.94
2019-06-20T07:48:09.106Z,46.28
2019-06-20T07:50:39.441Z,46.43
2019-06-20T07:53:09.297Z,47.05
2019-06-20T07:55:38.575Z,46.28
2019-06-20T07:58:07.780Z,45.84
2019-06-20T08:00:37.227Z,45.44
2019-06-20T08:03:06.432Z,45.05
2019-06-20T08:08:11.298Z,43.54
2019-06-20T08:10:40.910Z,43.16
2019-06-20T08:13:10.214Z,42.75
2019-06-20T08:15:39.780Z,42.21
2019-06-20T08:18:09.803Z,42.62
2019-06-20T08:20:39.011Z,42.28
2019-06-20T08:23:08.423Z,42.06
2019-06-20T08:25:37.751Z,42.47
2019-06-20T08:28:08.117Z,42.79
2019-06-20T08:31:16.690Z,43.26
2019-06-20T08:33:46.559Z,43.61
2019-06-20T08:36:16.770Z,43.55
2019-06-20T08:38:46.389Z,43.98
2019-06-20T08:41:15.586Z,43.69
2019-06-20T08:43:44.868Z,44.64
2019-06-20T08:46:15.245Z,45.01
2019-06-20T08:48:44.541Z,44.57
2019-06-20T08:51:14.783Z,44.23
2019-06-20T08:53:45.340Z,44.00
2019-06-20T08:56:14.922Z,44.08
2019-06-20T08:58:44.468Z,44.09
2019-06-20T09:01:14.089Z,44.08
2019-06-20T09:03:44.057Z,43.66
2019-06-20T09:06:13.761Z,43.34
2019-06-20T09:08:42.984Z,43.32
2019-06-20T09:11:12.569Z,43.49
2019-06-20T09:13:41.764Z,42.75
2019-06-20T09:16:23.957Z,43.14
2019-06-20T09:18:41.991Z,43.29
2019-06-20T09:21:11.652Z,43.23
2019-06-20T09:23:40.851Z,43.31
2019-06-20T09:26:17.796Z,43.10
2019-06-20T09:28:47.327Z,42.71
2019-06-20T09:31:16.524Z,41.80
2019-06-20T09:34:00.690Z,41.61
2019-06-20T09:36:17.481Z,41.70
2019-06-20T09:38:46.754Z,40.83
2019-06-20T09:41:16.592Z,41.61
2019-06-20T09:43:45.901Z,40.83
2019-06-20T09:46:15.234Z,41.19
2019-06-20T09:48:44.495Z,40.76
2019-06-20T09:51:13.726Z,40.31
2019-06-20T09:53:43.344Z,40.30
2019-06-20T09:56:12.907Z,40.56
2019-06-20T09:58:42.544Z,40.27
2019-06-20T10:01:12.079Z,39.83
2019-06-20T10:03:41.410Z,40.41
2019-06-20T10:06:14.206Z,40.34
2019-06-20T10:08:41.967Z,40.03
2019-06-20T10:11:11.578Z,40.65
2019-06-20T10:13:40.792Z,40.36
2019-06-20T10:16:10.418Z,40.63
2019-06-20T10:21:27.865Z,40.75
2019-06-20T10:23:57.432Z,40.78
2019-06-20T10:26:26.742Z,40.96
2019-06-20T10:28:57.410Z,41.02
2019-06-20T10:31:27.620Z,41.27
2019-06-20T10:33:56.952Z,41.24
2019-06-20T10:36:26.149Z,42.27
2019-06-20T10:38:56.830Z,43.35
2019-06-20T10:41:26.865Z,43.64
2019-06-20T10:43:56.653Z,43.85
2019-06-20T10:46:27.089Z,44.22
2019-06-20T10:48:56.288Z,44.43
2019-06-20T10:51:45.839Z,44.48
2019-06-20T10:54:15.420Z,46.01
2019-06-20T10:56:45.833Z,45.85
2019-06-20T10:59:15.690Z,47.74
2019-06-20T11:01:46.625Z,47.90
2019-06-20T11:04:17.464Z,48.13
2019-06-20T11:06:47.590Z,48.27
2019-06-20T11:09:18.343Z,48.35
2019-06-20T11:11:48.847Z,49.10
2019-06-20T11:14:18.855Z,49.33
2019-06-20T11:16:49.287Z,48.98
2019-06-20T11:19:19.090Z,47.42
2019-06-20T11:21:48.631Z,46.34
2019-06-20T11:24:17.927Z,45.27
2019-06-20T11:26:47.985Z,44.94
2019-06-20T11:29:18.492Z,44.69
2019-06-20T11:31:49.597Z,44.15
2019-06-20T11:34:20.059Z,44.07
2019-06-20T11:36:49.287Z,43.51
2019-06-20T11:39:18.545Z,42.73
2019-06-20T11:41:48.513Z,41.61
2019-06-20T11:44:38.911Z,40.47
2019-06-20T11:47:09.706Z,40.68
2019-06-20T11:49:38.931Z,40.26
2019-06-20T11:52:08.192Z,40.18
2019-06-20T11:54:38.256Z,39.37
2019-06-20T11:57:09.539Z,39.04
2019-06-20T11:59:38.744Z,39.31
2019-06-20T12:02:08.414Z,39.23
2019-06-20T12:04:38.270Z,39.34
2019-06-20T12:07:08.695Z,39.73
2019-06-20T12:09:37.988Z,39.56
2019-06-20T12:12:09.520Z,39.10
2019-06-20T12:14:39.702Z,38.13
2019-06-20T12:17:10.101Z,37.51
2019-06-20T12:22:28.418Z,34.53
2019-06-20T12:24:57.936Z,34.29
2019-06-20T12:27:27.184Z,34.09
2019-06-20T12:29:56.438Z,34.50
2019-06-20T12:32:25.775Z,34.32
2019-06-20T12:34:55.501Z,35.64
2019-06-20T12:37:24.722Z,35.70
2019-06-20T12:39:53.971Z,35.72
2019-06-20T12:42:23.219Z,35.87
2019-06-20T12:44:52.472Z,36.21
2019-06-20T12:47:21.682Z,36.26
2019-06-20T12:49:51.364Z,36.58
2019-06-20T12:52:20.573Z,37.30
2019-06-20T12:54:49.839Z,38.04
2019-06-20T12:57:19.035Z,38.12
2019-06-20T12:59:48.401Z,38.32
2019-06-20T13:02:17.587Z,38.76
2019-06-20T13:04:47.190Z,39.15
2019-06-20T13:07:16.420Z,39.94
2019-06-20T13:09:46.334Z,40.70
2019-06-20T13:12:17.009Z,41.80
2019-06-20T13:14:47.519Z,42.28
2019-06-20T13:17:17.218Z,42.85
2019-06-20T13:19:46.573Z,43.24
2019-06-20T13:22:15.860Z,43.40
2019-06-20T13:24:45.225Z,43.77
2019-06-20T13:27:14.963Z,43.69
2019-06-20T13:29:45.273Z,43.85
2019-06-20T13:32:15.287Z,43.13
2019-06-20T13:34:44.893Z,42.88
2019-06-20T13:39:50.185Z,43.70
2019-06-20T13:42:21.256Z,44.15
2019-06-20T13:44:51.206Z,44.15
2019-06-20T13:47:20.463Z,44.77
2019-06-20T13:49:50.227Z,45.04
2019-06-20T13:52:19.446Z,44.92
2019-06-20T13:54:49.937Z,45.36
2019-06-20T13:57:41.211Z,46.15
2019-06-20T14:03:18.745Z,46.05
2019-06-20T14:05:49.789Z,46.31
2019-06-20T14:08:19.346Z,46.74
2019-06-20T14:10:49.815Z,47.08
2019-06-20T14:13:19.851Z,47.49
2019-06-20T14:15:51.263Z,48.40
2019-06-20T14:18:21.942Z,49.30
2019-06-20T14:20:51.160Z,50.05
2019-06-20T14:23:20.849Z,50.69
2019-06-20T14:25:51.519Z,53.29
2019-06-20T14:28:21.244Z,61.65
2019-06-20T14:30:50.478Z,70.67
2019-06-20T14:33:19.723Z,73.71
2019-06-20T14:35:49.741Z,76.07
2019-06-20T14:38:19.918Z,75.64
2019-06-20T14:40:50.005Z,74.57
2019-06-20T14:43:19.321Z,74.39
2019-06-20T14:45:48.756Z,74.96
2019-06-20T14:48:21.056Z,72.22
2019-06-20T14:50:51.834Z,74.24
2019-06-20T14:53:21.176Z,71.62
2019-06-20T14:55:51.628Z,70.22
2019-06-20T14:58:21.773Z,70.80
2019-06-20T15:00:52.149Z,69.93
2019-06-20T15:03:22.475Z,67.97
2019-06-20T15:05:52.580Z,67.62
2019-06-20T15:08:22.715Z,68.17
2019-06-20T15:10:52.007Z,68.25
2019-06-20T15:13:21.602Z,67.76
2019-06-20T15:15:51.137Z,67.73
2019-06-20T15:18:21.800Z,67.16
2019-06-20T15:20:51.987Z,67.30
2019-06-20T15:23:22.145Z,66.25
2019-06-20T15:25:52.108Z,65.84
2019-06-20T15:28:22.795Z,65.82
2019-06-20T15:30:52.754Z,65.69
2019-06-20T15:33:23.438Z,66.71
2019-06-20T15:35:53.389Z,65.48
2019-06-20T15:38:23.693Z,65.20
2019-06-20T15:40:53.434Z,65.59
2019-06-20T15:43:23.935Z,66.60
2019-06-20T15:45:53.882Z,67.34
2019-06-20T15:48:24.186Z,67.28
2019-06-20T15:50:53.408Z,66.62
2019-06-20T15:53:22.672Z,66.39
2019-06-20T15:55:51.917Z,67.15
2019-06-20T15:58:21.588Z,67.38
2019-06-20T16:00:50.816Z,67.49
2019-06-20T16:03:20.065Z,67.21
2019-06-20T16:05:49.693Z,66.91
2019-06-20T16:08:18.946Z,65.98
2019-06-20T16:10:48.181Z,64.88
2019-06-20T16:13:17.419Z,64.69
2019-06-20T16:15:46.999Z,64.44
2019-06-20T16:18:16.267Z,62.79
2019-06-20T16:20:45.474Z,60.41
2019-06-20T16:23:14.704Z,59.21
2019-06-20T16:25:43.961Z,58.70
2019-06-20T16:28:13.238Z,52.65
2019-06-20T16:30:42.502Z,44.95
2019-06-20T16:33:24.176Z,40.09
2019-06-20T16:35:43.024Z,34.92
2019-06-20T16:38:12.251Z,30.96
2019-06-20T16:41:22.445Z,29.33
2019-06-20T16:43:51.712Z,27.08
2019-06-20T16:46:21.298Z,25.93
2019-06-20T16:48:50.540Z,23.83
2019-06-20T16:51:38.781Z,25.35
2019-06-20T16:54:07.989Z,28.27
2019-06-20T16:56:37.312Z,34.65
2019-06-20T16:59:06.535Z,39.96
2019-06-20T17:01:35.839Z,43.93
2019-06-20T17:04:05.136Z,45.94
2019-06-20T17:06:34.353Z,47.53
2019-06-20T17:11:58.838Z,32.27
2019-06-20T17:14:28.407Z,29.52
2019-06-20T17:16:57.681Z,32.76
2019-06-20T17:19:26.940Z,37.16
2019-06-20T17:21:56.151Z,36.45
2019-06-20T17:24:25.490Z,37.49
2019-06-20T17:26:55.080Z,40.10
2019-06-20T17:29:24.411Z,42.39
2019-06-20T17:31:53.613Z,44.54
2019-06-20T17:34:23.154Z,46.41
2019-06-20T17:36:52.351Z,48.67
2019-06-20T17:39:21.602Z,50.28
2019-06-20T17:41:55.200Z,51.87
2019-06-20T17:44:21.880Z,52.16
2019-06-20T17:46:51.114Z,53.20
2019-06-20T17:49:20.364Z,54.77
2019-06-20T17:51:49.652Z,55.87
2019-06-20T17:54:19.324Z,56.86
2019-06-20T17:56:49.626Z,57.47
2019-06-20T17:59:22.553Z,57.62
2019-06-20T18:04:38.591Z,58.87
2019-06-20T18:07:07.815Z,59.38
2019-06-20T18:09:37.072Z,59.56
2019-06-20T18:12:06.268Z,59.58
2019-06-20T18:14:36.045Z,59.96
2019-06-20T18:17:05.320Z,60.62
2019-06-20T18:19:34.830Z,60.01
2019-06-20T18:22:04.074Z,60.32
2019-06-20T18:24:33.744Z,60.69
2019-06-20T18:27:03.067Z,60.74
2019-06-20T18:29:32.277Z,60.73
2019-06-20T18:32:01.518Z,61.01
2019-06-20T18:34:31.034Z,60.69
2019-06-20T18:37:00.282Z,60.55
2019-06-20T18:39:29.492Z,60.81
2019-06-20T18:41:58.811Z,60.97
2019-06-20T18:44:29.341Z,61.35
2019-06-20T18:46:58.559Z,61.22
2019-06-20T18:49:27.815Z,61.79
2019-06-20T18:51:57.376Z,61.67
2019-06-20T18:54:26.982Z,61.64
2019-06-20T18:56:56.188Z,61.76
2019-06-20T18:59:26.203Z,61.72
2019-06-20T19:01:55.412Z,61.65
2019-06-20T19:04:25.106Z,61.56
2019-06-20T19:06:54.346Z,61.53
2019-06-20T19:09:24.615Z,61.96
2019-06-20T19:11:53.824Z,62.60
2019-06-20T19:14:23.137Z,62.42
2019-06-20T19:16:52.855Z,62.09
2019-06-20T19:19:22.597Z,62.13
2019-06-20T19:21:52.372Z,62.09
2019-06-20T19:24:21.993Z,62.28
2019-06-20T19:26:51.321Z,62.35
2019-06-20T19:29:20.522Z,62.40
2019-06-20T19:31:49.775Z,62.69
2019-06-20T19:34:18.971Z,63.18
2019-06-20T19:36:48.641Z,63.24
2019-06-20T19:39:17.823Z,63.33
2019-06-20T19:41:47.467Z,63.49
2019-06-20T19:44:16.657Z,63.40
2019-06-20T19:46:45.919Z,63.25
2019-06-20T19:49:15.456Z,63.38
2019-06-20T19:51:45.070Z,63.51
2019-06-20T19:54:14.286Z,63.99
2019-06-20T19:56:44.749Z,63.83
2019-06-20T19:59:14.307Z,63.68
2019-06-20T20:01:43.851Z,63.54
2019-06-20T20:04:13.542Z,63.44
2019-06-20T20:06:43.131Z,63.37
2019-06-20T20:09:12.734Z,63.28
2019-06-20T20:11:41.954Z,63.31
2019-06-20T20:14:11.971Z,63.65
2019-06-20T20:16:41.181Z,63.80
2019-06-20T20:19:10.421Z,63.84
2019-06-20T20:21:39.633Z,63.93
2019-06-20T20:24:09.246Z,63.99
2019-06-20T20:26:38.505Z,64.33
2019-06-20T20:29:07.743Z,64.68
2019-06-20T20:31:56.797Z,65.33
2019-06-20T20:34:26.952Z,65.51
2019-06-20T20:36:56.511Z,66.27
2019-06-20T20:39:25.756Z,66.41
2019-06-20T20:41:55.345Z,66.68
2019-06-20T20:44:24.598Z,66.38
2019-06-20T20:46:53.922Z,66.46
2019-06-20T20:49:23.175Z,66.49
2019-06-20T20:51:52.358Z,67.11
2019-06-20T20:54:22.010Z,67.29
2019-06-20T20:56:51.612Z,67.68
2019-06-20T21:01:55.316Z,68.06
2019-06-20T21:04:24.554Z,68.47
2019-06-20T21:06:53.755Z,68.48
2019-06-20T21:09:23.018Z,68.37
2019-06-20T21:11:52.211Z,68.36
2019-06-20T21:14:22.062Z,68.21
2019-06-20T21:16:51.330Z,67.75
2019-06-20T21:19:20.884Z,68.13
2019-06-20T21:21:50.144Z,67.78
2019-06-20T21:24:19.621Z,67.62
2019-06-20T21:26:50.225Z,67.59
2019-06-20T21:29:19.879Z,67.30
2019-06-20T21:31:49.149Z,67.44
2019-06-20T21:34:18.356Z,67.51
2019-06-20T21:36:47.606Z,67.86
2019-06-20T21:39:17.225Z,67.69
2019-06-20T21:41:46.864Z,67.85
2019-06-20T21:44:16.073Z,67.94
2019-06-20T21:46:45.479Z,67.77
2019-06-20T21:49:14.695Z,68.01
2019-06-20T21:51:44.832Z,67.91
2019-06-20T21:54:15.601Z,67.90
2019-06-20T21:56:44.847Z,67.92
2019-06-20T21:59:14.385Z,67.68
2019-06-20T22:01:43.601Z,67.50
2019-06-20T22:04:12.900Z,67.24
2019-06-20T22:06:42.161Z,67.33
2019-06-20T22:09:11.431Z,67.25
2019-06-20T22:11:40.778Z,67.29
2019-06-20T22:14:09.982Z,67.12
2019-06-20T22:16:39.170Z,67.09
2019-06-20T22:19:08.429Z,67.15
2019-06-20T22:21:37.621Z,67.27
2019-06-20T22:24:06.876Z,67.27
2019-06-20T22:26:36.439Z,67.38
2019-06-20T22:29:06.088Z,66.89
2019-06-20T22:31:35.595Z,66.45
2019-06-20T22:34:05.316Z,66.97
2019-06-20T22:36:40.354Z,67.27
2019-06-20T22:39:45.344Z,67.86
2019-06-20T22:42:14.945Z,68.09
2019-06-20T22:44:45.167Z,68.04
2019-06-20T22:47:14.372Z,67.95
2019-06-20T22:49:43.630Z,68.35
2019-06-20T22:52:12.834Z,68.71
2019-06-20T22:54:42.188Z,68.97
2019-06-20T22:57:11.400Z,69.00
2019-06-20T22:59:40.603Z,69.12
2019-06-20T23:02:09.868Z,69.70
2019-06-20T23:04:39.501Z,69.80
2019-06-20T23:07:09.037Z,69.95
2019-06-20T23:09:38.253Z,70.32
2019-06-20T23:12:07.512Z,70.66
2019-06-20T23:14:36.712Z,70.75
2019-06-20T23:17:05.981Z,71.16
2019-06-20T23:19:35.181Z,71.05
2019-06-20T23:22:04.532Z,71.36
2019-06-20T23:24:33.737Z,71.39
2019-06-20T23:27:03.043Z,71.54
2019-06-20T23:29:32.269Z,71.50
2019-06-20T23:32:01.519Z,71.51
2019-06-20T23:34:30.743Z,71.70
2019-06-20T23:37:12.116Z,71.97
2019-06-20T23:39:31.076Z,72.16
2019-06-20T23:42:00.400Z,72.20
2019-06-20T23:44:29.619Z,72.16
2019-06-20T23:46:58.854Z,72.14
2019-06-20T23:49:28.078Z,72.34
2019-06-20T23:52:16.269Z,72.48
2019-06-20T23:54:45.463Z,72.43
2019-06-20T23:57:14.668Z,72.12
2019-06-20T23:59:44.213Z,71.64
